Time;durP1;ratioP1;P1;durP2;ratioP2;P2;SDS_P1;SDS_P2;PMS_P1;PMS_P2;Temp;Humidity;BMP_temperature;BMP_pressure;BME280_temperature;BME280_humidity;BME280_pressure;Samples;Min_cycle;Max_cycle;Signal;HPM_P1;HPM_P2
2023/10/20 00:01:54;;;;;;;8.88;5.75;;;;;;;13.36;100.00;98491.31;5045063;28;20242;-80
2023/10/20 00:04:19;;;;;;;8.68;5.95;;;;;;;13.36;100.00;98488.69;5045188;28;20020;-80
2023/10/20 00:06:44;;;;;;;7.65;6.00;;;;;;;13.35;100.00;98477.44;5049567;28;20127;-80
2023/10/20 00:09:14;;;;;;;7.78;6.13;;;;;;;13.35;100.00;98476.59;5053503;28;20025;-80
2023/10/20 00:11:40;;;;;;;9.38;6.38;;;;;;;13.33;100.00;98478.47;5043228;28;20056;-79
2023/10/20 00:14:05;;;;;;;8.80;6.22;;;;;;;13.32;100.00;98488.09;5044216;28;20046;-80
2023/10/20 00:16:31;;;;;;;8.95;6.40;;;;;;;13.32;100.00;98476.84;5047126;28;20029;-80
2023/10/20 00:19:01;;;;;;;10.82;6.38;;;;;;;13.31;100.00;98475.16;5049755;28;20021;-80
2023/10/20 00:21:26;;;;;;;11.20;6.45;;;;;;;13.31;100.00;98470.78;5053021;28;20395;-80
2023/10/20 00:23:51;;;;;;;9.90;6.15;;;;;;;13.31;100.00;98469.94;5048039;28;20045;-80
2023/10/20 00:26:17;;;;;;;8.48;6.28;;;;;;;13.30;100.00;98465.69;5053971;28;20028;-80
2023/10/20 00:28:42;;;;;;;8.68;6.07;;;;;;;13.29;100.00;98462.22;5054073;28;20024;-80
2023/10/20 00:31:07;;;;;;;8.70;6.50;;;;;;;13.29;100.00;98457.00;5054153;28;20032;-80
2023/10/20 00:33:33;;;;;;;8.48;6.00;;;;;;;13.29;100.00;98461.41;5053363;28;20029;-80
2023/10/20 00:35:58;;;;;;;8.38;6.68;;;;;;;13.29;100.00;98454.38;5053558;28;20032;-80
2023/10/20 00:38:23;;;;;;;8.30;6.20;;;;;;;13.30;100.00;98450.00;5052900;28;20021;-80
2023/10/20 00:40:49;;;;;;;9.05;6.38;;;;;;;13.28;100.00;98433.63;5053191;28;20028;-80
2023/10/20 00:43:14;;;;;;;9.32;6.72;;;;;;;13.29;100.00;98436.09;5062028;28;20035;-80
2023/10/20 00:45:42;;;;;;;11.93;6.93;;;;;;;13.27;100.00;98421.50;5052883;28;20162;-80
2023/10/20 00:48:08;;;;;;;9.50;6.93;;;;;;;13.26;100.00;98415.44;5052838;28;20495;-80
2023/10/20 00:50:34;;;;;;;10.73;6.50;;;;;;;13.25;100.00;98397.28;5053202;28;20037;-80
2023/10/20 00:53:03;;;;;;;8.90;6.15;;;;;;;13.23;100.00;98393.97;5053284;28;20021;-80
2023/10/20 00:55:30;;;;;;;9.13;6.40;;;;;;;13.22;100.00;98395.75;5058047;28;20603;-80
2023/10/20 00:57:55;;;;;;;8.95;6.18;;;;;;;13.21;100.00;98392.28;5052237;28;20468;-79
2023/10/20 01:00:21;;;;;;;7.93;6.22;;;;;;;13.20;100.00;98395.84;5056905;28;20049;-80
2023/10/20 01:02:47;;;;;;;8.20;6.10;;;;;;;13.18;100.00;98376.88;5047957;28;20127;-80
2023/10/20 01:05:22;;;;;;;8.68;6.32;;;;;;;13.18;100.00;98381.28;5049991;28;20024;-80
2023/10/20 01:07:48;;;;;;;8.63;6.30;;;;;;;13.17;100.00;98371.78;5049861;28;20021;-80
2023/10/20 01:10:13;;;;;;;9.80;6.72;;;;;;;13.16;100.00;98365.69;5050365;28;20030;-80
2023/10/20 01:12:39;;;;;;;8.48;6.55;;;;;;;13.15;100.00;98361.44;5050658;28;20024;-80
2023/10/20 01:15:06;;;;;;;8.68;6.28;;;;;;;13.14;100.00;98361.56;5051606;28;20048;-80
2023/10/20 01:17:33;;;;;;;10.82;7.18;;;;;;;13.13;100.00;98360.75;5052254;28;20017;-80
2023/10/20 01:20:06;;;;;;;9.38;6.53;;;;;;;13.12;100.00;98356.47;5048969;28;20024;-80
2023/10/20 01:22:31;;;;;;;8.00;6.32;;;;;;;13.12;100.00;98351.25;5047170;28;20032;-80
2023/10/20 01:24:57;;;;;;;10.23;6.72;;;;;;;13.12;100.00;98340.81;5048567;28;20020;-79
2023/10/20 01:27:23;;;;;;;9.20;6.32;;;;;;;13.11;100.00;98330.47;5049780;28;20106;-80
2023/10/20 01:29:48;;;;;;;10.48;7.32;;;;;;;13.10;100.00;98324.44;5041928;28;20045;-80
2023/10/20 01:32:13;;;;;;;9.48;6.32;;;;;;;13.10;100.00;98331.41;5051417;28;20107;-80
2023/10/20 01:34:39;;;;;;;9.40;6.78;;;;;;;13.10;100.00;98316.59;5049144;28;20494;-80
2023/10/20 01:37:04;;;;;;;9.45;6.57;;;;;;;13.09;100.00;98314.09;5053320;28;20374;-80
2023/10/20 01:39:29;;;;;;;8.10;6.50;;;;;;;13.07;100.00;98306.38;5050589;28;20028;-80
2023/10/20 01:41:55;;;;;;;8.75;6.40;;;;;;;13.05;100.00;98311.72;5051385;28;20057;-79
2023/10/20 01:44:21;;;;;;;10.10;7.13;;;;;;;13.04;100.00;98325.72;5050395;28;20476;-80
2023/10/20 01:46:49;;;;;;;8.30;6.28;;;;;;;13.04;100.00;98325.72;5051845;28;20463;-80
2023/10/20 01:49:15;;;;;;;9.73;6.68;;;;;;;13.03;100.00;98325.84;5050209;28;20353;-80
2023/10/20 01:51:40;;;;;;;9.10;6.68;;;;;;;13.01;100.00;98304.22;5051277;28;20219;-80
2023/10/20 01:54:06;;;;;;;9.27;6.65;;;;;;;13.00;100.00;98302.56;5051058;28;20111;-80
2023/10/20 01:56:32;;;;;;;8.30;6.53;;;;;;;12.99;100.00;98293.06;5052853;28;20025;-80
2023/10/20 01:58:57;;;;;;;8.68;5.95;;;;;;;12.98;100.00;98286.22;5044681;28;20091;-79
2023/10/20 02:01:22;;;;;;;9.68;6.47;;;;;;;12.95;100.00;98283.84;5049457;28;20052;-80
2023/10/20 02:03:49;;;;;;;8.88;6.50;;;;;;;12.95;100.00;98291.69;5047295;28;20021;-80
2023/10/20 02:06:15;;;;;;;9.13;6.38;;;;;;;12.95;100.00;98284.66;5048982;28;20021;-80
2023/10/20 02:08:40;;;;;;;10.18;6.70;;;;;;;12.95;100.00;98274.22;5045821;28;20017;-80
2023/10/20 02:11:05;;;;;;;10.43;7.22;;;;;;;12.95;100.00;98273.41;5048291;28;20025;-80
2023/10/20 02:13:31;;;;;;;9.32;6.95;;;;;;;12.94;100.00;98269.13;5048565;28;20146;-80
2023/10/20 02:15:57;;;;;;;8.82;6.25;;;;;;;12.92;100.00;98253.56;5046458;28;20028;-80
2023/10/20 02:18:22;;;;;;;9.05;6.45;;;;;;;12.92;100.00;98245.75;5046378;28;20021;-79
2023/10/20 02:20:58;;;;;;;9.05;6.80;;;;;;;12.92;100.00;98248.38;5047096;28;20032;-79
2023/10/20 02:23:25;;;;;;;10.38;6.90;;;;;;;12.90;100.00;98258.09;5047112;28;20100;-80
2023/10/20 02:26:01;;;;;;;10.07;7.20;;;;;;;12.90;100.00;98251.09;5050849;28;20472;-80
2023/10/20 02:28:27;;;;;;;11.52;7.65;;;;;;;12.89;100.00;98243.41;5049394;28;20115;-80
2023/10/20 02:30:54;;;;;;;10.93;6.90;;;;;;;12.88;100.00;98232.13;5051030;28;20057;-79
2023/10/20 02:33:19;;;;;;;10.10;6.63;;;;;;;12.88;100.00;98223.47;5051569;28;20029;-79
2023/10/20 02:35:44;;;;;;;11.23;6.82;;;;;;;12.87;100.00;98217.41;5049266;28;20029;-80
2023/10/20 02:38:10;;;;;;;10.68;7.22;;;;;;;12.86;100.00;98217.53;5050086;28;20091;-80
2023/10/20 02:40:35;;;;;;;9.68;6.97;;;;;;;12.84;100.00;98204.59;5052208;28;20016;-80
2023/10/20 02:43:01;;;;;;;11.13;6.80;;;;;;;12.84;100.00;98204.59;5052102;28;20032;-80
2023/10/20 02:45:26;;;;;;;9.77;6.55;;;;;;;12.83;100.00;98208.16;5052039;28;20025;-80
2023/10/20 02:47:51;;;;;;;10.82;7.32;;;;;;;12.83;100.00;98194.28;5051015;28;20029;-80
2023/10/20 02:50:17;;;;;;;10.32;7.18;;;;;;;12.82;100.00;98183.00;5051343;28;20035;-80
2023/10/20 02:52:43;;;;;;;11.65;7.53;;;;;;;12.81;100.00;98188.34;5055517;28;20074;-80
2023/10/20 02:55:09;;;;;;;11.18;7.38;;;;;;;12.82;100.00;98176.97;5067866;28;20021;-79
2023/10/20 02:57:36;;;;;;;10.05;7.20;;;;;;;12.81;100.00;98170.09;5056063;28;20017;-80
2023/10/20 03:00:09;;;;;;;10.95;7.15;;;;;;;12.79;100.00;98167.63;5047285;28;20460;-80
2023/10/20 03:02:34;;;;;;;11.90;7.78;;;;;;;12.80;100.00;98163.22;5050601;28;20032;-80
2023/10/20 03:05:00;;;;;;;12.73;7.57;;;;;;;12.79;100.00;98162.41;5048973;28;20029;-80
2023/10/20 03:07:27;;;;;;;12.65;7.90;;;;;;;12.80;100.00;98155.41;5049863;28;20024;-80
2023/10/20 03:09:52;;;;;;;10.32;7.32;;;;;;;12.79;100.00;98135.47;5048119;28;20480;-79
2023/10/20 03:12:18;;;;;;;10.57;7.55;;;;;;;12.78;100.00;98132.03;5058966;28;20035;-80
2023/10/20 03:14:44;;;;;;;11.90;7.55;;;;;;;12.76;100.00;98118.28;5048692;28;20185;-80
2023/10/20 03:17:11;;;;;;;10.13;7.63;;;;;;;12.77;100.00;98113.88;5061246;28;20100;-80
2023/10/20 03:19:36;;;;;;;10.50;7.22;;;;;;;12.75;100.00;98114.03;5047137;28;20553;-80
2023/10/20 03:22:02;;;;;;;10.75;7.35;;;;;;;12.75;100.00;98120.06;5049789;28;20127;-79
2023/10/20 03:24:27;;;;;;;11.07;7.28;;;;;;;12.74;100.00;98125.41;5047764;28;20021;-80
2023/10/20 03:26:53;;;;;;;10.10;7.00;;;;;;;12.74;100.00;98128.00;5044974;28;20495;-79
2023/10/20 03:29:18;;;;;;;11.18;7.63;;;;;;;12.74;100.00;98130.63;5045368;28;20039;-80
2023/10/20 03:31:43;;;;;;;10.95;7.78;;;;;;;12.73;100.00;98118.53;5044924;28;20400;-80
2023/10/20 03:34:09;;;;;;;10.32;7.18;;;;;;;12.72;100.00;98116.88;5050057;28;20040;-80
2023/10/20 03:36:34;;;;;;;10.57;7.20;;;;;;;12.73;100.00;98114.13;5053141;28;20074;-80
2023/10/20 03:38:59;;;;;;;11.75;7.45;;;;;;;12.73;100.00;98105.47;5044044;28;20028;-79
2023/10/20 03:41:25;;;;;;;12.40;7.90;;;;;;;12.73;100.00;98095.03;5047833;28;20033;-80
2023/10/20 03:43:50;;;;;;;11.95;7.38;;;;;;;12.74;100.00;98092.31;5048165;28;20029;-80
2023/10/20 03:46:18;;;;;;;15.32;7.72;;;;;;;12.73;100.00;98090.66;5051267;28;20043;-80
2023/10/20 03:48:43;;;;;;;10.02;7.22;;;;;;;12.73;100.00;98087.22;5053681;28;20052;-80
2023/10/20 03:51:11;;;;;;;10.60;7.38;;;;;;;12.74;100.00;98099.31;5049879;28;20392;-79
2023/10/20 03:53:46;;;;;;;9.98;7.40;;;;;;;12.74;100.00;98091.50;5051399;28;20111;-80
2023/10/20 03:56:11;;;;;;;12.82;8.07;;;;;;;12.74;100.00;98088.88;5053128;28;20036;-80
2023/10/20 03:58:37;;;;;;;11.52;8.25;;;;;;;12.74;100.00;98086.28;5052566;28;20680;-80
2023/10/20 04:01:02;;;;;;;11.98;7.72;;;;;;;12.74;100.00;98066.22;5051422;28;20063;-80
2023/10/20 04:03:31;;;;;;;13.50;8.25;;;;;;;12.75;100.00;98061.84;5050800;28;20020;-79
2023/10/20 04:05:56;;;;;;;11.70;8.18;;;;;;;12.76;100.00;98058.28;5053152;28;20037;-80
2023/10/20 04:08:23;;;;;;;12.50;8.07;;;;;;;12.75;100.00;98072.28;5050715;28;20396;-80
2023/10/20 04:10:48;;;;;;;12.40;8.73;;;;;;;12.75;100.00;98074.88;5053885;28;20161;-80
2023/10/20 04:13:14;;;;;;;11.73;8.15;;;;;;;12.75;100.00;98059.22;5052096;28;20150;-80
2023/10/20 04:15:40;;;;;;;12.60;8.23;;;;;;;12.76;100.00;98063.50;5053622;28;20032;-80
2023/10/20 04:18:06;;;;;;;13.77;8.27;;;;;;;12.75;100.00;98047.00;5050749;28;20368;-80
2023/10/20 04:20:38;;;;;;;11.63;8.73;;;;;;;12.76;100.00;98029.59;5051704;28;20074;-80
2023/10/20 04:23:04;;;;;;;11.65;8.25;;;;;;;12.75;100.00;98038.38;5051628;28;20035;-80
2023/10/20 04:25:33;;;;;;;13.02;8.63;;;;;;;12.75;100.00;98027.94;5060505;28;20028;-80
2023/10/20 04:28:11;;;;;;;12.85;8.32;;;;;;;12.76;100.00;98026.97;5055958;28;20024;-80
2023/10/20 05:00:30;;;;;;;13.77;9.88;;;;;;;12.78;100.00;97941.59;5053669;28;20037;-80
2023/10/20 05:05:27;;;;;;;15.38;10.68;;;;;;;12.78;100.00;97936.38;5058199;28;20032;-80
2023/10/20 05:07:53;;;;;;;14.07;9.82;;;;;;;12.79;100.00;97938.03;5052272;28;20090;-80
2023/10/20 05:10:19;;;;;;;13.77;10.23;;;;;;;12.77;100.00;97919.06;5053052;28;20013;-80
2023/10/20 05:12:48;;;;;;;14.40;11.02;;;;;;;12.78;100.00;97914.66;5052294;28;20060;-80
2023/10/20 05:15:13;;;;;;;13.13;9.77;;;;;;;12.78;100.00;97915.50;5054050;28;20035;-80
2023/10/20 05:17:39;;;;;;;15.40;10.25;;;;;;;12.78;100.00;97910.31;5056057;28;20031;-80
2023/10/20 05:20:06;;;;;;;13.80;9.95;;;;;;;12.77;100.00;97913.84;5053517;28;20025;-79
2023/10/20 05:22:34;;;;;;;14.38;9.82;;;;;;;12.80;100.00;97912.78;5065424;28;20043;-79
2023/10/20 05:24:59;;;;;;;13.75;9.90;;;;;;;12.80;100.00;97900.56;5054182;28;20035;-79
2023/10/20 05:27:24;;;;;;;13.32;10.48;;;;;;;12.80;100.00;97884.91;5045825;28;20033;-80
2023/10/20 05:29:50;;;;;;;13.90;10.27;;;;;;;12.80;100.00;97884.91;5050701;28;20052;-80
2023/10/20 05:32:17;;;;;;;13.60;10.57;;;;;;;12.81;100.00;97888.34;5040018;28;20025;-80
2023/10/20 05:34:42;;;;;;;14.13;10.02;;;;;;;12.81;100.00;97889.16;5045146;28;20017;-80
2023/10/20 05:37:08;;;;;;;13.43;10.23;;;;;;;12.82;100.00;97890.81;5048551;28;20032;-80
2023/10/20 05:39:33;;;;;;;13.95;10.43;;;;;;;12.82;100.00;97893.41;5048809;28;20519;-80
2023/10/20 05:42:01;;;;;;;13.55;9.85;;;;;;;12.83;100.00;97902.09;5049897;28;20024;-80
2023/10/20 05:44:30;;;;;;;14.15;10.40;;;;;;;12.83;100.00;97908.13;5048049;28;20483;-80
2023/10/20 05:46:56;;;;;;;13.45;9.95;;;;;;;12.86;100.00;97917.50;5047529;28;20043;-80
2023/10/20 05:49:21;;;;;;;13.48;10.40;;;;;;;12.86;100.00;97913.09;5047203;28;20535;-80
2023/10/20 05:51:46;;;;;;;13.00;10.07;;;;;;;12.87;100.00;97900.88;5049363;28;20025;-80
2023/10/20 05:54:12;;;;;;;13.20;10.25;;;;;;;12.87;100.00;97896.47;5051858;28;20048;-80
2023/10/20 05:56:37;;;;;;;14.75;10.60;;;;;;;12.86;100.00;97894.81;5045189;28;20037;-80
2023/10/20 05:59:02;;;;;;;13.55;10.60;;;;;;;12.86;100.00;97887.00;5046475;28;20017;-80
2023/10/20 06:01:27;;;;;;;13.27;9.85;;;;;;;12.86;100.00;97892.22;5055899;28;20090;-79
2023/10/20 06:03:53;;;;;;;12.00;9.63;;;;;;;12.86;100.00;97889.59;5047648;28;20028;-80
2023/10/20 06:06:18;;;;;;;14.40;10.48;;;;;;;12.86;100.00;97884.38;5048931;28;20070;-80
2023/10/20 06:08:43;;;;;;;13.90;10.38;;;;;;;12.86;100.00;97884.38;5045889;28;20025;-80
2023/10/20 06:11:09;;;;;;;13.75;10.43;;;;;;;12.88;100.00;97873.84;5050965;28;20025;-80
2023/10/20 06:13:35;;;;;;;13.35;10.32;;;;;;;12.87;100.00;97878.22;5050538;28;20357;-80
2023/10/20 06:16:08;;;;;;;13.77;10.77;;;;;;;12.87;100.00;97867.78;5050681;28;20021;-80
2023/10/20 06:18:35;;;;;;;13.35;10.68;;;;;;;12.87;100.00;97865.16;5050983;28;20108;-80
2023/10/20 06:21:01;;;;;;;13.57;10.48;;;;;;;12.88;100.00;97871.22;5050880;28;20025;-81
2023/10/20 06:23:26;;;;;;;13.13;10.38;;;;;;;12.87;100.00;97883.44;5045582;28;20021;-80
2023/10/20 06:25:51;;;;;;;14.25;10.63;;;;;;;12.86;100.00;97887.00;5052447;28;20086;-80
2023/10/20 06:28:17;;;;;;;13.23;10.57;;;;;;;12.88;100.00;97889.50;5048389;28;20034;-80
2023/10/20 06:30:43;;;;;;;13.25;10.20;;;;;;;12.88;100.00;97882.47;5047157;28;20025;-80
2023/10/20 06:33:16;;;;;;;12.43;9.70;;;;;;;12.88;100.00;97856.38;5044478;28;20112;-80
2023/10/20 06:35:51;;;;;;;13.25;10.75;;;;;;;12.89;100.00;97852.81;5045593;28;20031;-80
2023/10/20 06:38:30;;;;;;;12.63;9.80;;;;;;;12.89;100.00;97846.78;5049847;28;20017;-81
2023/10/20 06:40:56;;;;;;;11.93;9.45;;;;;;;12.88;100.00;97856.38;5048921;28;20036;-81
2023/10/20 06:43:21;;;;;;;12.75;10.20;;;;;;;12.88;100.00;97856.38;5047422;28;20024;-81
2023/10/20 06:45:55;;;;;;;12.38;9.20;;;;;;;12.90;100.00;97854.47;5047099;28;20411;-80
2023/10/20 06:48:20;;;;;;;13.07;8.88;;;;;;;12.91;100.00;97873.56;5046879;28;20032;-80
2023/10/20 06:50:46;;;;;;;12.25;9.77;;;;;;;12.92;100.00;97864.78;5041951;28;20020;-80
2023/10/20 06:53:11;;;;;;;13.52;9.52;;;;;;;12.89;100.00;97849.41;5053890;28;20029;-81
2023/10/20 06:55:40;;;;;;;11.93;9.68;;;;;;;12.90;100.00;97851.03;5048813;28;20031;-81
2023/10/20 06:58:06;;;;;;;11.50;9.23;;;;;;;12.90;100.00;97856.25;5040240;28;20021;-81
2023/10/20 07:00:31;;;;;;;12.95;9.55;;;;;;;12.90;100.00;97848.41;5049827;28;20045;-81
2023/10/20 07:02:56;;;;;;;11.50;9.30;;;;;;;12.90;100.00;97845.81;5048331;28;20040;-81
2023/10/20 07:05:23;;;;;;;13.50;9.40;;;;;;;12.88;100.00;97838.13;5044760;28;20025;-81
2023/10/20 07:07:49;;;;;;;12.88;9.30;;;;;;;12.87;100.00;97836.47;5046937;28;20025;-81
2023/10/20 07:10:17;;;;;;;11.68;9.13;;;;;;;12.87;100.00;97841.69;5052179;28;20035;-81
2023/10/20 07:12:43;;;;;;;12.73;9.77;;;;;;;12.86;100.00;97850.47;5051674;28;20460;-81
2023/10/20 07:15:08;;;;;;;12.68;9.50;;;;;;;12.84;100.00;97847.16;5045505;28;20031;-80
2023/10/20 07:17:34;;;;;;;12.98;9.73;;;;;;;12.83;100.00;97848.13;5045205;28;20094;-81
2023/10/20 07:20:01;;;;;;;12.80;9.25;;;;;;;12.81;100.00;97836.16;5047206;28;20089;-81
2023/10/20 07:22:28;;;;;;;13.38;9.27;;;;;;;12.80;100.00;97835.34;5046967;28;20048;-81
2023/10/20 07:24:55;;;;;;;11.98;8.85;;;;;;;12.78;100.00;97837.25;5041861;28;20154;-81
2023/10/20 07:27:22;;;;;;;12.77;9.73;;;;;;;12.77;100.00;97835.59;5047310;28;20021;-81
2023/10/20 07:29:47;;;;;;;13.15;9.00;;;;;;;12.75;100.00;97827.88;5048701;28;20039;-81
2023/10/20 07:32:13;;;;;;;12.35;8.75;;;;;;;12.73;100.00;97842.03;5047291;28;21078;-81
2023/10/20 07:34:38;;;;;;;12.32;8.30;;;;;;;12.70;100.00;97835.28;5041092;28;20060;-81
2023/10/20 07:37:03;;;;;;;10.93;8.18;;;;;;;12.69;100.00;97838.00;5044662;28;20025;-81
2023/10/20 07:39:28;;;;;;;11.77;8.25;;;;;;;12.68;100.00;97825.91;5047470;28;20017;-81
2023/10/20 07:41:54;;;;;;;10.68;7.70;;;;;;;12.68;100.00;97834.59;5043713;28;20051;-81
2023/10/20 07:44:19;;;;;;;10.38;7.57;;;;;;;12.66;100.00;97833.03;5047165;28;20032;-80
2023/10/20 07:46:44;;;;;;;10.15;7.25;;;;;;;12.65;100.00;97831.38;5047268;28;20040;-81
2023/10/20 07:49:13;;;;;;;11.50;7.75;;;;;;;12.64;100.00;97819.31;5048807;28;20075;-81
2023/10/20 07:51:39;;;;;;;9.93;6.70;;;;;;;12.63;100.00;97828.91;5050377;28;20036;-81
2023/10/20 07:54:05;;;;;;;10.05;7.18;;;;;;;12.62;100.00;97826.44;5044794;28;20025;-81
2023/10/20 07:56:31;;;;;;;9.30;6.78;;;;;;;12.60;100.00;97818.72;5048957;28;20025;-81
2023/10/20 07:58:56;;;;;;;10.00;7.10;;;;;;;12.58;100.00;97811.03;5048214;28;20032;-81
2023/10/20 08:01:22;;;;;;;9.43;6.65;;;;;;;12.56;100.00;97819.94;5049540;28;20107;-81
2023/10/20 08:03:47;;;;;;;10.07;6.43;;;;;;;12.54;100.00;97817.47;5047904;28;20029;-81
2023/10/20 08:06:14;;;;;;;8.40;5.97;;;;;;;12.53;100.00;97813.19;5048985;28;20437;-81
2023/10/20 08:08:39;;;;;;;7.57;5.50;;;;;;;12.52;100.00;97795.09;5043026;28;20039;-81
2023/10/20 08:11:06;;;;;;;8.52;6.30;;;;;;;12.51;100.00;97793.44;5048631;28;20107;-80
2023/10/20 08:13:33;;;;;;;8.25;5.85;;;;;;;12.49;100.00;97798.75;5033924;28;20093;-80
2023/10/20 08:16:08;;;;;;;8.10;5.95;;;;;;;12.47;100.00;97807.66;5042738;28;20052;-81
2023/10/20 08:18:35;;;;;;;8.05;5.72;;;;;;;12.45;100.00;97802.59;5040812;28;20112;-81
2023/10/20 08:21:08;;;;;;;7.57;5.30;;;;;;;12.44;100.00;97819.19;5044999;28;20036;-81
2023/10/20 08:23:37;;;;;;;7.50;5.35;;;;;;;12.43;100.00;97814.91;5046816;28;20727;-81
2023/10/20 08:26:03;;;;;;;7.88;5.07;;;;;;;12.39;100.00;97816.94;5040679;28;20031;-80
2023/10/20 08:28:28;;;;;;;5.93;4.30;;;;;;;12.37;100.00;97816.25;5037145;28;20053;-80
2023/10/20 08:31:08;;;;;;;6.10;4.20;;;;;;;12.35;100.00;97814.72;5040130;28;20072;-81
2023/10/20 08:33:34;;;;;;;5.78;4.20;;;;;;;12.33;100.00;97812.25;5046602;28;20500;-81
2023/10/20 08:36:11;;;;;;;6.03;4.43;;;;;;;12.32;100.00;97814.97;5044105;28;20432;-81
2023/10/20 08:38:36;;;;;;;6.43;4.00;;;;;;;12.29;100.00;97822.09;5039891;28;20479;-81
2023/10/20 08:41:08;;;;;;;5.85;4.05;;;;;;;12.29;100.00;97824.72;5041435;28;20029;-81
2023/10/20 08:43:33;;;;;;;6.32;4.40;;;;;;;12.28;100.00;97819.59;5041629;28;20041;-80
2023/10/20 08:45:59;;;;;;;6.78;3.80;;;;;;;12.25;100.00;97818.09;5041042;28;20051;-81
2023/10/20 08:48:25;;;;;;;4.85;3.58;;;;;;;12.23;100.00;97812.16;5042190;28;20119;-81
2023/10/20 08:50:51;;;;;;;4.35;3.08;;;;;;;12.20;100.00;97817.63;5044881;28;20153;-82
2023/10/20 08:53:19;;;;;;;4.40;3.20;;;;;;;12.18;100.00;97813.50;5041268;28;20021;-81
2023/10/20 08:55:45;;;;;;;3.97;2.65;;;;;;;12.16;100.00;97811.00;5037165;28;20060;-80
2023/10/20 08:58:10;;;;;;;4.45;2.50;;;;;;;12.16;100.00;97816.22;5043264;28;20054;-81
2023/10/20 09:00:35;;;;;;;3.35;2.40;;;;;;;12.10;100.00;97809.72;5040684;28;20124;-81
2023/10/20 09:03:01;;;;;;;3.38;2.15;;;;;;;12.05;100.00;97811.84;5041028;28;20071;-81
2023/10/20 09:05:26;;;;;;;2.67;2.08;;;;;;;12.02;100.00;97819.09;5044811;28;20388;-81
2023/10/20 09:07:53;;;;;;;2.20;1.60;;;;;;;12.01;100.00;97813.09;5045218;28;20091;-81
2023/10/20 09:10:18;;;;;;;2.88;1.98;;;;;;;11.97;100.00;97822.88;5044266;28;20029;-82
2023/10/20 09:12:43;;;;;;;2.97;1.80;;;;;;;11.95;100.00;97816.97;5048779;28;20027;-81
2023/10/20 09:15:11;;;;;;;2.83;1.80;;;;;;;11.94;100.00;97817.94;5043197;28;20094;-83
2023/10/20 09:17:36;;;;;;;2.03;1.60;;;;;;;11.94;100.00;97817.94;5042795;28;20034;-82
2023/10/20 09:20:12;;;;;;;2.38;1.60;;;;;;;11.90;100.00;97811.31;5041624;28;20027;-82
2023/10/20 09:22:38;;;;;;;1.88;1.50;;;;;;;11.89;100.00;97814.00;5044422;28;20029;-82
2023/10/20 09:25:10;;;;;;;2.10;1.60;;;;;;;11.88;100.00;97808.00;5051599;28;20045;-83
2023/10/20 09:27:37;;;;;;;1.92;1.40;;;;;;;11.87;100.00;97801.13;5059023;28;20031;-83
2023/10/20 09:30:08;;;;;;;2.15;1.50;;;;;;;11.88;100.00;97802.78;5050029;28;20032;-81
2023/10/20 09:32:34;;;;;;;2.30;1.38;;;;;;;11.89;100.00;97798.38;5051474;28;20036;-81
2023/10/20 09:34:59;;;;;;;2.10;1.60;;;;;;;11.88;100.00;97789.75;5041527;28;20131;-81
2023/10/20 09:37:28;;;;;;;3.00;1.63;;;;;;;11.88;100.00;97792.38;5048099;28;20063;-81
2023/10/20 09:40:00;;;;;;;3.35;1.63;;;;;;;11.89;100.00;97811.41;5041791;28;20083;-81
2023/10/20 09:42:26;;;;;;;2.30;1.65;;;;;;;11.86;100.00;97804.69;5043011;28;20025;-82
2023/10/20 09:45:06;;;;;;;2.60;1.40;;;;;;;11.86;100.00;97799.47;5038353;28;20034;-81
2023/10/20 09:47:35;;;;;;;1.67;1.35;;;;;;;11.86;100.00;97804.69;5041738;28;20099;-81
2023/10/20 09:50:01;;;;;;;1.60;1.30;;;;;;;11.87;100.00;97793.31;5042423;28;20044;-81
2023/10/20 09:52:29;;;;;;;1.65;1.20;;;;;;;11.88;100.00;97797.56;5044495;28;20025;-82
2023/10/20 09:54:55;;;;;;;1.90;1.33;;;;;;;11.88;100.00;97794.97;5039550;28;20033;-81
2023/10/20 09:57:21;;;;;;;1.33;1.20;;;;;;;11.88;100.00;97792.38;5042135;28;20086;-81
2023/10/20 09:59:53;;;;;;;1.60;1.20;;;;;;;11.88;100.00;97801.94;5044696;28;20029;-81
2023/10/20 10:02:29;;;;;;;1.42;1.00;;;;;;;11.86;100.00;97796.88;5041320;28;20048;-81
2023/10/20 10:04:56;;;;;;;1.30;1.10;;;;;;;11.85;100.00;97797.81;5046034;28;20111;-81
2023/10/20 10:07:31;;;;;;;1.52;0.93;;;;;;;11.84;100.00;97801.38;5059474;28;20365;-81
2023/10/20 10:09:57;;;;;;;1.92;1.30;;;;;;;11.82;100.00;97793.69;5033386;28;20087;-81
2023/10/20 10:12:25;;;;;;;1.67;1.20;;;;;;;11.80;100.00;97789.53;5050858;28;20025;-81
2023/10/20 10:15:01;;;;;;;1.08;0.95;;;;;;;11.80;100.00;97784.31;5047377;28;20464;-82
2023/10/20 10:17:26;;;;;;;1.27;1.10;;;;;;;11.80;100.00;97792.13;5046848;28;20048;-82
2023/10/20 10:19:54;;;;;;;1.52;1.13;;;;;;;11.81;100.00;97791.19;5058381;28;20475;-82
2023/10/20 10:22:27;;;;;;;2.03;1.10;;;;;;;11.83;100.00;97784.06;5072367;28;20077;-82
2023/10/20 10:24:55;;;;;;;2.03;1.20;;;;;;;11.85;100.00;97784.78;5061760;28;20048;-82
2023/10/20 10:27:22;;;;;;;1.92;1.20;;;;;;;11.87;100.00;97779.47;5047603;28;20033;-82
2023/10/20 10:30:01;;;;;;;1.50;1.17;;;;;;;11.86;100.00;97776.03;5047317;28;20036;-82
2023/10/20 10:32:31;;;;;;;1.40;1.10;;;;;;;11.87;100.00;97771.66;5050241;28;20028;-82
2023/10/20 10:34:58;;;;;;;2.10;1.20;;;;;;;11.89;100.00;97772.34;5046900;28;20032;-82
2023/10/20 10:37:34;;;;;;;1.80;1.27;;;;;;;11.92;100.00;97766.88;5038634;28;20111;-82
2023/10/20 10:40:10;;;;;;;1.63;1.10;;;;;;;11.93;100.00;97760.72;5041331;28;20092;-83
2023/10/20 10:42:46;;;;;;;1.23;0.90;;;;;;;11.93;100.00;97758.97;5036355;28;20029;-82
2023/10/20 10:45:23;;;;;;;1.33;1.10;;;;;;;11.92;100.00;97761.66;5041506;28;20031;-82
2023/10/20 10:47:50;;;;;;;1.30;1.00;;;;;;;11.89;100.00;97749.72;5040142;28;20056;-82
2023/10/20 10:50:16;;;;;;;1.38;1.00;;;;;;;11.90;100.00;97748.78;5050373;28;20029;-82
2023/10/20 10:52:42;;;;;;;1.33;1.10;;;;;;;11.91;100.00;97745.22;5049550;28;20036;-82
2023/10/20 10:55:09;;;;;;;1.30;1.20;;;;;;;11.88;100.00;97732.44;5042752;28;20028;-82
2023/10/20 10:57:35;;;;;;;1.40;1.30;;;;;;;11.89;100.00;97733.25;5044496;28;20498;-82
2023/10/20 11:00:00;;;;;;;1.20;1.10;;;;;;;11.89;100.00;97731.50;5048074;28;20029;-82
2023/10/20 11:02:26;;;;;;;2.00;1.48;;;;;;;11.89;100.00;97731.50;5038642;28;20032;-82
2023/10/20 11:04:51;;;;;;;1.65;1.40;;;;;;;11.88;100.00;97724.63;5040156;28;20048;-82
2023/10/20 11:07:17;;;;;;;1.90;1.48;;;;;;;11.89;100.00;97720.25;5042833;28;20091;-82
2023/10/20 11:09:42;;;;;;;2.25;1.60;;;;;;;11.89;100.00;97715.03;5038788;28;20028;-82
2023/10/20 11:12:10;;;;;;;3.80;1.73;;;;;;;11.89;100.00;97710.66;5039754;28;20210;-82
2023/10/20 11:14:38;;;;;;;2.08;1.70;;;;;;;11.91;100.00;97693.13;5038732;28;20021;-82
2023/10/20 11:17:04;;;;;;;2.20;1.70;;;;;;;11.91;100.00;97687.06;5039616;28;20043;-82
2023/10/20 11:19:30;;;;;;;1.92;1.60;;;;;;;11.94;100.00;97690.28;5039756;28;20029;-83
2023/10/20 11:21:55;;;;;;;1.95;1.67;;;;;;;11.94;100.00;97684.22;5038446;28;20375;-82
2023/10/20 11:24:28;;;;;;;1.80;1.65;;;;;;;11.95;100.00;97681.50;5040248;28;20029;-82
2023/10/20 11:26:59;;;;;;;1.92;1.75;;;;;;;11.93;100.00;97685.19;5040333;28;20460;-82
2023/10/20 11:29:32;;;;;;;1.65;1.55;;;;;;;11.92;100.00;97684.38;5040242;28;20388;-82
2023/10/20 11:32:00;;;;;;;2.00;1.80;;;;;;;11.92;100.00;97684.38;5039534;28;20032;-82
2023/10/20 11:34:26;;;;;;;2.00;1.80;;;;;;;11.92;100.00;97691.34;5040003;28;20024;-81
2023/10/20 11:36:51;;;;;;;1.92;1.80;;;;;;;11.90;100.00;97686.25;5040265;28;20037;-81
2023/10/20 11:39:17;;;;;;;2.00;1.80;;;;;;;11.90;100.00;97680.22;5039874;28;20052;-81
2023/10/20 11:41:42;;;;;;;2.55;1.80;;;;;;;11.90;100.00;97670.63;5039402;28;20036;-83
2023/10/20 11:44:08;;;;;;;2.33;2.03;;;;;;;11.90;100.00;97668.03;5037764;28;20029;-82
2023/10/20 11:46:34;;;;;;;2.08;1.88;;;;;;;11.89;100.00;97663.78;5039694;28;20087;-82
2023/10/20 11:48:59;;;;;;;2.00;1.80;;;;;;;11.90;100.00;97662.81;5043313;28;20123;-81
2023/10/20 11:51:24;;;;;;;1.80;1.70;;;;;;;11.91;100.00;97653.22;5038849;28;20396;-80
2023/10/20 11:53:49;;;;;;;1.88;1.70;;;;;;;11.93;100.00;97648.72;5039212;28;20526;-81